Time;durP1;ratioP1;P1;durP2;ratioP2;P2;SDS_P1;SDS_P2;PMS_P1;PMS_P2;Temp;Humidity;BMP_temperature;BMP_pressure;BME280_temperature;BME280_humidity;BME280_pressure;Samples;Min_cycle;Max_cycle;Signal;HPM_P1;HPM_P2
2022/11/15 00:02:00;;;;;;;27.02;14.43;;;4.50;99.90;;;2.71;100.00;100282.94;5001978;28;20044;-81
2022/11/15 00:04:45;;;;;;;23.48;13.63;;;4.40;99.90;;;2.56;100.00;100289.06;5002156;28;20069;-80
2022/11/15 00:07:29;;;;;;;26.00;14.52;;;4.20;99.90;;;2.53;100.00;100292.09;5005499;28;20125;-81
2022/11/15 00:10:14;;;;;;;25.92;15.48;;;4.10;99.90;;;2.56;100.00;100298.97;4996507;28;20045;-80
2022/11/15 00:12:58;;;;;;;23.30;13.63;;;4.10;99.90;;;2.43;100.00;100292.28;5001277;28;20453;-80
2022/11/15 00:15:43;;;;;;;22.73;14.15;;;4.00;99.90;;;2.40;100.00;100292.63;5001169;28;20085;-81
2022/11/15 00:18:28;;;;;;;23.55;13.88;;;4.00;99.90;;;2.38;100.00;100283.88;5001878;28;20381;-81
2022/11/15 00:21:15;;;;;;;26.92;13.88;;;4.00;99.90;;;2.37;100.00;100289.44;5001336;28;20045;-81
2022/11/15 00:23:59;;;;;;;26.95;14.40;;;4.00;99.90;;;2.35;100.00;100288.78;5002289;28;20085;-81
2022/11/15 00:26:43;;;;;;;27.23;15.55;;;4.00;99.90;;;2.41;100.00;100280.84;5002283;28;20381;-80
2022/11/15 00:29:28;;;;;;;29.55;14.93;;;4.00;99.90;;;2.41;100.00;100288.94;5003169;28;20061;-81
2022/11/15 00:32:12;;;;;;;26.60;15.93;;;4.00;99.90;;;2.41;100.00;100282.69;5003778;28;20506;-80
2022/11/15 00:34:57;;;;;;;25.50;15.40;;;4.00;99.90;;;2.41;100.00;100270.09;5001113;28;20119;-81
2022/11/15 00:37:41;;;;;;;25.90;14.57;;;4.00;99.90;;;2.48;100.00;100280.16;4999362;28;20452;-80
2022/11/15 00:40:26;;;;;;;26.40;14.13;;;4.10;99.90;;;2.48;100.00;100277.47;5001834;28;20056;-80
2022/11/15 00:43:10;;;;;;;26.30;14.00;;;4.10;99.90;;;2.57;100.00;100263.81;4999199;28;20057;-80
2022/11/15 00:45:55;;;;;;;25.70;13.60;;;4.20;99.90;;;2.61;100.00;100268.84;5003992;28;20536;-80
2022/11/15 00:48:40;;;;;;;25.05;14.13;;;4.30;99.90;;;2.65;100.00;100272.88;5000439;28;20503;-80
2022/11/15 00:51:24;;;;;;;26.27;13.73;;;4.30;99.90;;;2.83;100.00;100273.47;5003146;28;20132;-81
2022/11/15 00:54:08;;;;;;;31.45;16.45;;;4.40;99.90;;;3.19;100.00;100276.66;5000966;28;20507;-79
2022/11/15 00:56:53;;;;;;;27.85;14.98;;;4.70;99.90;;;3.33;100.00;100267.81;5005795;28;20124;-80
2022/11/15 00:59:37;;;;;;;31.58;16.45;;;4.90;99.90;;;3.51;100.00;100269.38;5007245;28;20472;-80
2022/11/15 01:02:22;;;;;;;33.17;16.40;;;5.10;99.90;;;3.81;100.00;100258.66;5004319;28;20157;-80
2022/11/15 01:05:08;;;;;;;30.45;16.50;;;5.40;99.90;;;3.91;100.00;100253.03;5007603;28;20041;-80
2022/11/15 01:07:54;;;;;;;32.97;16.65;;;5.50;99.90;;;4.10;100.00;100247.13;5004676;28;20095;-80
2022/11/15 01:10:39;;;;;;;30.65;16.77;;;5.70;99.90;;;4.14;100.00;100243.00;4993340;28;20072;-79
2022/11/15 01:13:23;;;;;;;28.85;16.17;;;5.70;99.90;;;4.18;100.00;100240.78;5005491;28;20122;-81
2022/11/15 01:16:18;;;;;;;29.88;16.63;;;5.80;99.90;;;4.23;100.00;100234.81;5003736;28;20113;-80
2022/11/15 01:19:03;;;;;;;30.95;16.17;;;5.80;99.90;;;4.21;100.00;100228.78;5006900;28;20083;-81
2022/11/15 01:21:51;;;;;;;28.33;15.20;;;5.80;99.90;;;4.10;100.00;100213.84;5005849;28;20060;-80
2022/11/15 01:24:35;;;;;;;28.35;15.73;;;5.70;99.90;;;4.10;100.00;100220.13;5004970;28;20514;-80
2022/11/15 01:27:20;;;;;;;33.58;18.83;;;5.70;99.90;;;4.17;100.00;100215.66;5007791;28;20185;-80
2022/11/15 01:30:05;;;;;;;31.70;18.65;;;5.80;99.90;;;4.16;100.00;100211.25;5005688;28;20080;-80
2022/11/15 01:32:49;;;;;;;31.63;17.30;;;5.80;99.90;;;4.24;100.00;100214.91;5003131;28;20137;-80
2022/11/15 01:35:39;;;;;;;30.63;17.27;;;5.80;99.90;;;4.27;100.00;100209.16;5007343;28;20099;-81
2022/11/15 01:38:24;;;;;;;30.40;17.35;;;5.90;99.90;;;4.30;100.00;100204.19;5001823;28;20124;-80
2022/11/15 01:41:18;;;;;;;31.92;16.83;;;5.90;99.90;;;4.32;100.00;100207.53;5006783;28;20112;-81
2022/11/15 01:44:37;;;;;;;30.35;16.42;;;5.90;99.90;;;4.30;100.00;100197.97;5005014;28;20052;-80
2022/11/15 01:47:37;;;;;;;26.55;15.10;;;5.80;99.90;;;4.14;100.00;100194.41;5003020;28;20053;-81
2022/11/15 01:50:31;;;;;;;25.13;14.60;;;5.70;99.90;;;4.04;100.00;100196.56;5003682;28;20131;-80
2022/11/15 01:53:17;;;;;;;22.27;13.32;;;5.60;99.90;;;3.91;100.00;100190.94;5003972;28;20492;-80
2022/11/15 01:56:07;;;;;;;21.83;13.43;;;5.50;99.90;;;3.79;100.00;100190.56;5005088;28;20080;-80
2022/11/15 01:58:55;;;;;;;22.13;11.98;;;5.30;99.90;;;3.67;100.00;100190.16;5004898;28;20559;-80
2022/11/15 02:01:40;;;;;;;23.88;14.05;;;5.30;99.90;;;3.69;100.00;100193.50;5001925;28;20045;-81
2022/11/15 02:04:35;;;;;;;24.13;13.38;;;5.20;99.90;;;3.66;100.00;100192.03;5004080;28;20104;-79
2022/11/15 02:07:22;;;;;;;22.02;13.10;;;5.20;99.90;;;3.66;100.00;100199.28;5004117;28;20190;-79
2022/11/15 02:10:19;;;;;;;21.98;12.70;;;5.20;99.90;;;3.71;100.00;100194.16;5003795;28;20088;-82
2022/11/15 02:13:03;;;;;;;21.45;12.10;;;5.30;99.90;;;3.73;100.00;100194.84;5003599;28;20092;-82
2022/11/15 02:16:13;;;;;;;21.98;12.68;;;5.30;99.90;;;3.80;100.00;100181.44;5002014;28;20048;-80
2022/11/15 02:19:33;;;;;;;24.15;13.25;;;5.40;99.90;;;3.89;100.00;100177.66;5006204;28;20459;-80
2022/11/15 02:22:48;;;;;;;20.77;12.70;;;5.50;99.90;;;3.84;100.00;100172.81;5002264;28;20060;-80
2022/11/15 02:26:24;;;;;;;22.35;12.25;;;5.40;99.90;;;3.80;100.00;100179.59;5005729;28;20057;-80
2022/11/15 02:29:44;;;;;;;19.65;11.82;;;5.40;99.90;;;3.76;100.00;100178.28;5006598;28;20052;-81
2022/11/15 02:32:44;;;;;;;20.73;12.80;;;5.30;99.90;;;3.72;100.00;100167.00;5006410;28;20115;-81
2022/11/15 02:35:56;;;;;;;22.98;12.68;;;5.30;99.90;;;3.76;100.00;100166.63;5004284;28;20060;-81
2022/11/15 02:38:58;;;;;;;21.50;13.20;;;5.30;99.90;;;3.83;100.00;100167.56;5003038;28;20136;-81
2022/11/15 02:42:00;;;;;;;22.58;12.43;;;5.40;99.90;;;3.88;100.00;100157.09;5004343;28;20501;-80
2022/11/15 02:44:47;;;;;;;26.25;14.18;;;5.40;99.90;;;3.92;100.00;100147.59;5006262;28;20045;-80
2022/11/15 02:47:42;;;;;;;24.23;14.43;;;5.50;99.90;;;4.08;100.00;100143.00;5003702;28;20076;-81
2022/11/15 02:50:30;;;;;;;23.70;14.57;;;5.70;99.90;;;4.34;100.00;100149.81;5003025;28;20100;-81
2022/11/15 02:53:15;;;;;;;25.27;14.02;;;5.80;99.90;;;4.59;100.00;100143.06;5002622;28;20106;-82
2022/11/15 02:56:00;;;;;;;29.23;15.52;;;6.10;99.90;;;4.67;100.00;100144.81;5008720;28;20072;-81
2022/11/15 02:59:25;;;;;;;30.02;16.05;;;6.20;99.90;;;5.05;100.00;100141.06;5012466;28;20148;-81
2022/11/15 03:02:44;;;;;;;26.42;14.75;;;6.50;99.90;;;5.42;100.00;100143.69;5011364;28;20145;-82
2022/11/15 03:06:03;;;;;;;26.80;15.05;;;6.80;99.90;;;5.71;100.00;100131.84;4991512;28;20114;-82
2022/11/15 03:09:03;;;;;;;28.00;16.08;;;7.10;99.90;;;5.76;100.00;100128.53;5004410;28;20124;-82
2022/11/15 03:11:59;;;;;;;22.98;14.77;;;7.20;99.90;;;5.64;100.00;100139.06;5008871;28;20051;-81
2022/11/15 03:15:05;;;;;;;25.42;14.40;;;7.20;99.90;;;5.69;100.00;100146.59;5008636;28;20118;-80
2022/11/15 03:18:14;;;;;;;21.30;14.18;;;7.20;99.90;;;5.66;100.00;100142.41;5007878;28;20068;-81
2022/11/15 03:21:05;;;;;;;25.60;14.00;;;7.20;99.90;;;5.74;100.00;100141.41;5004976;28;20049;-81
2022/11/15 03:23:55;;;;;;;25.85;14.55;;;7.30;99.90;;;5.85;100.00;100135.47;4981927;28;20069;-81
2022/11/15 03:26:45;;;;;;;24.65;13.95;;;7.40;99.90;;;5.93;100.00;100139.06;4986272;28;20068;-81
2022/11/15 03:29:38;;;;;;;20.27;12.73;;;7.40;99.90;;;5.54;100.00;100136.69;4986578;28;20133;-81
2022/11/15 03:32:29;;;;;;;20.50;12.68;;;7.20;99.90;;;5.28;100.00;100142.72;4983956;28;20401;-81
2022/11/15 03:35:22;;;;;;;21.88;12.70;;;6.90;99.90;;;5.07;100.00;100144.41;4990723;28;20049;-81
2022/11/15 03:38:19;;;;;;;21.08;12.52;;;6.70;99.90;;;5.22;100.00;100144.31;4988442;28;20089;-81
2022/11/15 03:41:12;;;;;;;22.70;13.25;;;6.70;99.90;;;5.95;100.00;100134.28;4970825;28;20322;-82
2022/11/15 03:44:07;;;;;;;20.95;13.30;;;7.20;99.90;;;6.36;100.00;100138.06;4973008;28;20045;-82
2022/11/15 03:47:07;;;;;;;25.10;14.60;;;7.60;99.90;;;6.41;100.00;100128.31;4971952;28;20141;-81
2022/11/15 03:49:59;;;;;;;23.85;14.75;;;7.80;99.90;;;6.45;100.00;100132.28;4977012;28;20085;-83
2022/11/15 03:52:47;;;;;;;20.55;12.10;;;7.90;99.90;;;6.43;100.00;100137.06;4978309;28;20045;-82
2022/11/15 03:55:33;;;;;;;16.83;11.07;;;7.90;99.90;;;6.32;100.00;100159.28;4975578;28;20556;-83
2022/11/15 03:58:17;;;;;;;17.05;10.90;;;7.80;99.90;;;6.13;100.00;100137.34;4972367;28;20048;-83
2022/11/15 04:01:01;;;;;;;15.23;10.23;;;7.70;99.90;;;6.19;100.00;100169.03;4975579;28;20057;-82
2022/11/15 04:03:46;;;;;;;16.10;10.43;;;7.70;99.90;;;6.13;100.00;100159.00;4971171;28;20081;-81
2022/11/15 04:06:30;;;;;;;14.18;10.00;;;7.70;99.90;;;6.07;100.00;100159.78;4972090;28;20049;-81
2022/11/15 04:09:15;;;;;;;18.45;9.48;;;7.60;99.90;;;5.95;100.00;100161.34;4970694;28;20496;-81
2022/11/15 04:11:59;;;;;;;19.40;10.30;;;7.50;99.90;;;5.72;100.00;100171.41;4977974;28;20579;-82
2022/11/15 04:15:06;;;;;;;14.80;9.13;;;7.30;99.90;;;5.56;100.00;100172.50;4972878;28;20093;-81
2022/11/15 04:17:54;;;;;;;16.50;10.05;;;7.10;99.90;;;5.44;100.00;100165.97;4978028;28;20500;-81
2022/11/15 04:26:44;;;;;;;14.07;9.63;;;6.70;99.90;;;4.95;100.00;100163.00;4971735;28;20116;-81
2022/11/15 04:29:35;;;;;;;14.55;9.25;;;6.50;99.90;;;4.81;100.00;100167.41;4974708;28;20072;-81
2022/11/15 04:32:20;;;;;;;16.90;9.00;;;6.40;99.90;;;4.68;100.00;100161.88;4974666;28;20041;-80
2022/11/15 04:35:05;;;;;;;15.85;10.20;;;6.20;99.90;;;4.64;100.00;100156.00;4983052;28;20045;-81
2022/11/15 04:37:50;;;;;;;14.63;9.77;;;6.20;99.90;;;4.66;100.00;100162.06;4986132;28;20100;-80
2022/11/15 04:40:35;;;;;;;14.43;9.65;;;6.20;99.90;;;4.53;100.00;100154.63;4973901;28;20136;-81
2022/11/15 04:43:20;;;;;;;18.65;10.02;;;6.10;99.90;;;4.47;100.00;100156.22;4971046;28;20058;-81
2022/11/15 04:46:04;;;;;;;20.15;11.10;;;6.00;99.90;;;4.58;100.00;100148.66;4980920;28;20069;-80
2022/11/15 04:48:50;;;;;;;15.68;9.57;;;6.10;99.90;;;4.67;100.00;100147.50;4970677;28;20070;-81
2022/11/15 04:51:34;;;;;;;17.45;9.90;;;6.20;99.90;;;4.93;100.00;100151.53;4969926;28;20077;-81
2022/11/15 04:54:18;;;;;;;14.02;9.20;;;6.40;99.90;;;4.99;100.00;100158.88;4970410;28;20062;-81
2022/11/15 04:57:03;;;;;;;15.50;9.98;;;6.40;99.90;;;5.20;100.00;100154.50;4970559;28;20054;-81
2022/11/15 04:59:47;;;;;;;15.30;9.43;;;6.60;99.90;;;5.21;100.00;100152.66;4971407;28;20413;-80
2022/11/15 05:05:34;;;;;;;15.73;8.88;;;6.60;99.90;;;5.06;100.00;100158.13;4970671;28;20054;-82
2022/11/15 05:08:19;;;;;;;15.27;9.35;;;6.60;99.90;;;4.98;100.00;100162.59;4970807;28;20057;-81
2022/11/15 05:11:03;;;;;;;15.32;9.52;;;6.50;99.90;;;4.94;100.00;100166.72;4971118;28;20049;-81
2022/11/15 05:13:49;;;;;;;14.52;9.07;;;6.50;99.90;;;4.89;100.00;100161.88;4970678;28;20121;-81
2022/11/15 05:16:33;;;;;;;14.45;8.48;;;6.50;99.90;;;4.82;100.00;100149.34;4970567;28;20109;-82
2022/11/15 05:19:17;;;;;;;14.73;9.00;;;6.40;99.90;;;4.94;100.00;100166.72;4968124;28;20081;-81
2022/11/15 05:22:02;;;;;;;16.00;9.70;;;6.40;99.90;;;4.97;100.00;100166.34;4978926;28;20109;-81
2022/11/15 05:24:46;;;;;;;16.70;9.40;;;6.50;99.90;;;5.01;100.00;100164.09;4992873;28;20126;-80
2022/11/15 05:27:31;;;;;;;15.73;8.55;;;6.60;99.90;;;5.19;100.00;100160.94;4990471;28;20123;-81
2022/11/15 05:30:16;;;;;;;16.48;9.60;;;6.60;99.90;;;5.17;100.00;100163.88;4990267;28;20405;-81
2022/11/15 05:33:01;;;;;;;14.35;8.73;;;6.70;99.90;;;5.10;100.00;100165.63;4989193;28;20563;-81
2022/11/15 05:35:54;;;;;;;12.23;8.35;;;6.60;99.90;;;5.06;100.00;100168.94;4990064;28;20053;-80
2022/11/15 05:38:38;;;;;;;14.15;9.10;;;6.60;99.90;;;5.05;100.00;100162.69;4995506;28;20045;-80
2022/11/15 05:41:33;;;;;;;12.68;8.25;;;6.60;99.90;;;4.99;100.00;100156.16;4993555;28;20053;-80
2022/11/15 05:44:23;;;;;;;13.93;7.93;;;6.50;99.90;;;5.02;100.00;100154.97;4992866;28;20048;-81
2022/11/15 05:47:13;;;;;;;14.40;8.13;;;6.50;99.90;;;5.11;100.00;100158.38;4992915;28;20120;-80
2022/11/15 05:49:58;;;;;;;14.65;8.10;;;6.60;99.90;;;5.41;100.00;100150.13;4992862;28;20112;-81
2022/11/15 05:52:45;;;;;;;12.60;8.15;;;6.90;99.90;;;5.84;100.00;100160.88;4993781;28;20124;-81
2022/11/15 05:55:29;;;;;;;14.05;9.77;;;7.20;99.90;;;6.13;100.00;100147.31;4994046;28;20052;-81
2022/11/15 05:58:14;;;;;;;13.55;8.75;;;7.50;99.90;;;6.43;100.00;100147.06;4997193;28;20151;-81
2022/11/15 06:01:00;;;;;;;16.98;8.30;;;7.80;99.90;;;6.68;100.00;100158.22;5001501;28;20121;-82
2022/11/15 06:03:44;;;;;;;12.93;7.53;;;8.00;99.90;;;6.79;100.00;100161.38;4995773;28;20049;-82
2022/11/15 06:06:29;;;;;;;17.77;8.93;;;8.20;99.90;;;6.82;100.00;100178.06;4993026;28;20044;-81
2022/11/15 06:09:14;;;;;;;15.02;8.73;;;8.30;99.90;;;6.85;100.00;100177.66;5000965;28;20049;-81
2022/11/15 06:11:58;;;;;;;14.02;7.47;;;8.30;99.90;;;6.88;100.00;100188.09;5004761;28;20523;-81
2022/11/15 06:14:43;;;;;;;15.20;7.95;;;8.30;99.90;;;6.87;100.00;100191.00;5001217;28;20104;-82
2022/11/15 06:17:29;;;;;;;10.25;6.40;;;8.40;99.90;;;6.90;100.00;100198.75;4993661;28;20048;-81
2022/11/15 06:20:13;;;;;;;9.02;6.05;;;8.40;99.90;;;6.94;100.00;100193.75;4994096;28;20057;-82
2022/11/15 06:22:59;;;;;;;9.63;5.93;;;8.40;99.90;;;6.93;100.00;100201.06;4997078;28;20172;-81
2022/11/15 06:25:44;;;;;;;7.75;5.13;;;8.40;99.90;;;6.86;100.00;100201.03;5005612;28;20071;-81
2022/11/15 06:28:32;;;;;;;11.80;6.15;;;8.30;99.90;;;6.76;100.00;100197.84;5007364;28;20041;-81
2022/11/15 06:31:16;;;;;;;13.73;6.68;;;8.30;99.90;;;6.68;100.00;100200.75;5002734;28;20088;-81
2022/11/15 06:34:01;;;;;;;12.85;6.45;;;8.20;99.90;;;6.57;100.00;100185.88;5001696;28;20065;-82
2022/11/15 06:36:46;;;;;;;10.02;6.15;;;8.10;99.90;;;6.45;100.00;100196.47;5007730;28;20605;-82
2022/11/15 06:39:30;;;;;;;7.18;5.20;;;8.00;99.90;;;6.43;100.00;100210.22;5001624;28;20045;-83
2022/11/15 06:42:14;;;;;;;11.55;5.47;;;7.90;99.90;;;6.67;100.00;100199.91;5012664;28;20048;-86
2022/11/15 06:44:59;;;;;;;10.23;6.05;;;8.00;99.90;;;6.70;100.00;100207.66;5024127;28;20045;-86
2022/11/15 06:47:47;;;;;;;8.65;5.53;;;8.10;99.90;;;6.56;100.00;100216.75;5006262;28;20196;-86
2022/11/15 06:50:32;;;;;;;9.80;5.80;;;8.10;99.90;;;6.40;100.00;100229.59;5009856;28;20045;-83
2022/11/15 06:53:16;;;;;;;8.82;6.10;;;7.90;99.90;;;6.40;100.00;100218.75;5001487;28;20096;-89
2022/11/15 06:56:04;;;;;;;10.05;6.03;;;7.90;99.90;;;6.58;100.00;100218.22;5012557;28;20056;-88
2022/11/15 06:58:49;;;;;;;10.68;6.93;;;8.10;99.90;;;6.79;100.00;100210.16;5014565;28;20060;-87
2022/11/15 07:01:33;;;;;;;10.90;6.70;;;8.20;99.90;;;7.05;100.00;100217.56;4998029;28;20306;-83
2022/11/15 07:04:18;;;;;;;9.23;6.25;;;8.50;99.90;;;7.29;100.00;100223.47;5008953;28;20044;-86
2022/11/15 07:07:03;;;;;;;11.82;6.13;;;8.70;99.90;;;7.40;100.00;100231.00;5010739;28;20048;-83
2022/11/15 07:09:47;;;;;;;8.88;5.93;;;8.80;99.90;;;7.53;100.00;100227.47;5006406;28;20091;-89
2022/11/15 07:12:32;;;;;;;9.13;5.53;;;8.90;99.90;;;7.63;100.00;100230.63;5020648;28;20036;-89
2022/11/15 07:15:18;;;;;;;10.45;5.82;;;9.10;99.90;;;7.69;100.00;100230.81;5030214;28;20056;-93
2022/11/15 07:18:03;;;;;;;12.68;6.05;;;9.20;99.90;;;7.75;100.00;100230.00;5024530;28;20053;-91
2022/11/15 07:20:48;;;;;;;11.18;5.55;;;9.20;99.90;;;7.82;100.00;100235.41;5031186;28;20037;-90
2022/11/15 07:23:35;;;;;;;10.55;5.45;;;9.30;99.90;;;7.86;100.00;100223.94;5017285;28;20045;-87
2022/11/15 07:26:19;;;;;;;7.68;5.20;;;9.30;99.90;;;8.01;100.00;100233.78;5018294;28;20708;-88
2022/11/15 07:29:04;;;;;;;8.20;4.85;;;9.40;99.90;;;8.21;100.00;100228.31;5013677;28;20048;-87
2022/11/15 07:31:50;;;;;;;6.30;4.55;;;9.60;99.90;;;8.26;100.00;100224.97;5020243;28;20207;-86
2022/11/15 07:34:34;;;;;;;7.30;4.68;;;9.70;99.90;;;8.32;100.00;100226.81;5025117;28;20319;-87
2022/11/15 07:37:19;;;;;;;7.40;4.68;;;9.80;99.90;;;8.39;100.00;100230.34;5020285;28;20093;-90
2022/11/15 07:40:05;;;;;;;8.55;5.00;;;9.90;99.90;;;8.46;100.00;100243.94;5026218;28;20539;-90
2022/11/15 07:42:53;;;;;;;8.20;4.90;;;9.90;99.90;;;8.46;100.00;100241.22;5036099;28;20103;-86
2022/11/15 07:45:45;;;;;;;7.95;5.30;;;9.90;99.90;;;8.43;100.00;100238.94;5022116;28;20103;-86
2022/11/15 07:48:30;;;;;;;9.02;4.78;;;9.90;99.90;;;8.39;100.00;100240.41;5007826;28;20069;-86
2022/11/15 07:51:16;;;;;;;10.75;4.85;;;9.90;99.90;;;8.28;100.00;100234.56;5014705;28;20069;-84
2022/11/15 07:54:01;;;;;;;8.88;5.57;;;9.80;99.90;;;8.16;100.00;100239.78;5008959;28;20125;-87
2022/11/15 07:56:45;;;;;;;10.93;5.40;;;9.80;99.90;;;8.06;100.00;100239.41;5011611;28;20137;-87
2022/11/15 07:59:30;;;;;;;9.75;5.30;;;9.60;99.90;;;7.90;100.00;100230.63;5000930;28;20081;-89
2022/11/15 08:02:17;;;;;;;9.65;5.13;;;9.50;99.90;;;7.80;100.00;100232.06;5009880;28;20506;-83
2022/11/15 08:05:01;;;;;;;8.73;5.28;;;9.40;99.90;;;7.85;100.00;100233.13;5011234;28;20061;-89
2022/11/15 08:07:46;;;;;;;9.73;5.65;;;9.40;99.90;;;7.87;100.00;100233.75;5000752;28;20076;-86
2022/11/15 08:10:31;;;;;;;9.63;5.60;;;9.40;99.90;;;7.93;100.00;100229.38;4996517;28;20081;-83
2022/11/15 08:13:15;;;;;;;8.32;4.75;;;9.40;99.90;;;8.01;100.00;100225.63;4992283;28;20201;-83
2022/11/15 08:16:01;;;;;;;9.95;4.88;;;9.50;99.90;;;8.12;100.00;100235.84;5002000;28;20124;-84
2022/11/15 08:18:46;;;;;;;11.07;5.75;;;9.60;99.90;;;8.18;100.00;100224.13;5017233;28;20053;-81
2022/11/15 08:21:31;;;;;;;8.93;5.07;;;9.60;99.90;;;8.26;100.00;100236.66;5003029;28;20057;-81
2022/11/15 08:24:15;;;;;;;10.43;5.25;;;9.70;99.90;;;8.36;100.00;100236.22;5002528;28;20100;-81
2022/11/15 08:27:01;;;;;;;9.55;4.68;;;9.80;99.90;;;8.42;100.00;100232.66;5000343;28;20436;-80
2022/11/15 08:29:48;;;;;;;8.00;5.18;;;9.90;99.90;;;8.64;100.00;100237.84;4995664;28;20088;-81
2022/11/15 08:32:33;;;;;;;10.40;4.82;;;10.10;99.90;;;8.77;100.00;100236.97;5000873;28;20036;-80
2022/11/15 08:35:19;;;;;;;8.85;4.68;;;10.20;99.90;;;8.88;100.00;100238.19;5005334;28;20068;-81
2022/11/15 08:38:04;;;;;;;8.40;4.53;;;10.30;99.90;;;9.14;100.00;100241.84;5002685;28;20178;-80
2022/11/15 08:40:52;;;;;;;7.63;4.55;;;10.50;99.90;;;9.42;100.00;100246.06;5009565;28;20049;-81
2022/11/15 08:43:36;;;;;;;8.38;4.45;;;10.80;99.90;;;9.60;100.00;100235.28;4999862;28;20048;-80
2022/11/15 08:46:21;;;;;;;7.93;3.92;;;11.00;99.90;;;9.77;100.00;100234.72;5011663;28;20294;-80
2022/11/15 08:49:05;;;;;;;7.03;3.95;;;11.20;99.90;;;9.91;100.00;100236.28;5005565;28;20525;-81
2022/11/15 08:51:50;;;;;;;6.35;3.70;;;11.40;99.90;;;10.03;100.00;100239.13;5008112;28;20111;-79
2022/11/15 08:54:34;;;;;;;5.90;3.70;;;11.50;99.90;;;10.18;100.00;100236.06;5005812;28;20049;-80
2022/11/15 08:57:19;;;;;;;5.65;3.90;;;11.70;99.90;;;10.40;100.00;100238.41;5008560;28;20069;-82
2022/11/15 09:00:05;;;;;;;7.05;4.07;;;11.80;99.90;;;10.58;100.00;100232.13;5013862;28;20049;-81
2022/11/15 09:02:49;;;;;;;7.18;3.90;;;12.00;99.90;;;10.73;100.00;100236.34;5012124;28;20060;-81
2022/11/15 09:05:37;;;;;;;6.25;3.78;;;12.20;99.90;;;10.88;100.00;100233.25;5018002;28;20068;-86
2022/11/15 09:08:22;;;;;;;5.72;3.75;;;12.40;99.90;;;11.05;100.00;100228.81;5017777;28;20100;-83
2022/11/15 09:11:09;;;;;;;6.05;3.78;;;12.50;99.90;;;11.18;100.00;100226.97;5014296;28;20068;-83
2022/11/15 09:13:54;;;;;;;5.72;3.50;;;12.70;99.90;;;11.30;100.00;100229.75;5016084;28;20049;-82
2022/11/15 09:16:39;;;;;;;7.35;3.50;;;12.80;99.90;;;11.54;98.01;100233.38;5021923;28;20447;-83
2022/11/15 09:19:23;;;;;;;6.47;3.45;;;13.00;99.90;;;11.70;94.95;100229.13;5001191;28;20041;-78
2022/11/15 09:22:08;;;;;;;7.30;3.58;;;13.20;99.90;;;11.68;93.93;100225.00;4991874;28;20523;-79
2022/11/15 09:24:52;;;;;;;7.90;4.75;;;13.30;99.90;;;11.75;92.86;100220.25;5000600;28;20105;-80
2022/11/15 09:27:37;;;;;;;7.13;3.70;;;13.40;99.90;;;11.99;90.17;100226.56;4999530;28;20048;-79
2022/11/15 09:30:22;;;;;;;5.40;3.30;;;13.80;99.90;;;12.30;88.39;100226.50;4999896;28;20049;-81
2022/11/15 09:33:12;;;;;;;6.25;3.28;;;14.50;99.90;;;12.52;86.10;100219.34;5003780;28;20397;-81
2022/11/15 09:36:08;;;;;;;5.15;3.03;;;15.10;99.90;;;12.94;82.69;100226.50;4997075;28;20152;-79
2022/11/15 09:38:52;;;;;;;7.15;3.50;;;15.70;99.90;;;13.44;78.78;100218.69;4992525;28;20109;-82
2022/11/15 09:42:18;;;;;;;6.95;3.28;;;16.30;99.90;;;13.74;76.20;100225.78;5001822;28;20404;-81
2022/11/15 09:45:31;;;;;;;5.38;3.20;;;16.50;99.90;;;15.09;69.70;100233.19;5002987;28;20049;-78
2022/11/15 09:48:50;;;;;;;6.18;2.92;;;17.30;99.90;;;15.86;64.70;100227.59;4998567;28;20167;-78
2022/11/15 09:51:47;;;;;;;6.35;3.05;;;17.80;99.90;;;16.09;62.17;100217.34;4995241;28;20080;-79
2022/11/15 09:54:32;;;;;;;5.78;3.05;;;17.70;99.90;;;16.37;60.21;100220.84;4997152;28;20026;-82
2022/11/15 09:57:16;;;;;;;5.43;3.15;;;17.90;99.90;;;16.44;59.77;100226.09;5009129;28;20038;-80
2022/11/15 10:00:02;;;;;;;5.05;2.80;;;18.00;99.90;;;16.40;59.61;100220.28;5010052;28;20029;-84
2022/11/15 10:03:16;;;;;;;6.07;3.10;;;17.90;99.90;;;16.70;58.06;100227.06;5009198;28;20026;-84
2022/11/15 10:05:51;;;;;;;5.40;2.67;;;17.80;99.90;;;16.39;60.22;100218.63;5010328;28;20034;-80
2022/11/15 10:09:07;;;;;;;5.88;2.92;;;17.90;99.90;;;16.74;58.68;100219.09;4993418;28;20123;-80
2022/11/15 10:11:36;;;;;;;5.53;3.20;;;18.10;99.90;;;16.76;58.71;100215.00;5000085;28;20124;-80
2022/11/15 10:14:26;;;;;;;4.45;2.60;;;18.30;99.90;;;17.08;57.10;100210.44;4992906;28;20041;-78
2022/11/15 10:17:21;;;;;;;5.10;2.88;;;18.60;99.90;;;16.48;59.09;100206.03;4996765;28;20477;-84
2022/11/15 10:19:52;;;;;;;7.30;2.80;;;18.30;99.90;;;16.48;58.33;100200.53;5001899;28;20393;-91
2022/11/15 10:22:29;;;;;;;4.47;2.70;;;18.20;99.90;;;16.08;59.99;100210.19;5005523;28;20472;-82
2022/11/15 10:25:16;;;;;;;5.28;2.90;;;18.00;99.90;;;17.08;57.24;100207.66;4998753;28;20049;-83
2022/11/15 10:27:55;;;;;;;4.60;2.90;;;18.40;99.90;;;17.96;52.52;100205.84;5000526;28;20046;-81
2022/11/15 10:30:21;;;;;;;;;;;;;;;18.46;53.39;100213.50;4992597;28;20140;-79
2022/11/15 10:32:49;;;;;;;5.35;2.88;;;20.00;99.90;;;18.50;52.00;100211.81;5006011;28;19936;-78
2022/11/15 10:35:29;;;;;;;7.15;2.78;;;20.30;99.90;;;18.17;51.86;100211.38;4993144;28;20049;-82
2022/11/15 10:38:10;;;;;;;4.15;2.58;;;20.60;94.80;;;17.89;52.95;100210.81;4991603;28;20511;-80
2022/11/15 10:40:39;;;;;;;5.25;2.80;;;20.20;95.00;;;17.81;53.52;100205.84;4997280;28;20222;-80
2022/11/15 10:43:09;;;;;;;5.88;2.67;;;20.00;95.10;;;17.85;53.94;100201.44;4993495;28;20696;-81
2022/11/15 10:45:36;;;;;;;5.70;2.83;;;19.80;95.70;;;17.69;53.28;100198.66;4991118;28;20057;-78
2022/11/15 10:48:23;;;;;;;4.43;2.63;;;19.70;95.40;;;17.48;54.42;100194.22;4992033;28;20031;-80
2022/11/15 10:50:51;;;;;;;5.10;2.67;;;19.50;95.70;;;18.16;52.76;100201.44;4992308;28;20035;-81
2022/11/15 10:53:28;;;;;;;6.30;2.60;;;19.90;95.60;;;17.67;52.89;100191.78;4995311;28;20448;-80
2022/11/15 10:56:01;;;;;;;4.88;2.70;;;19.90;94.80;;;17.20;54.44;100185.38;5003430;28;20543;-83
2022/11/15 10:58:44;;;;;;;5.40;2.90;;;19.50;95.40;;;17.72;53.01;100182.66;4998330;28;20066;-80
2022/11/15 11:01:16;;;;;;;5.35;2.47;;;19.70;95.70;;;18.02;51.70;100181.84;5003575;28;20091;-76
2022/11/15 11:03:45;;;;;;;4.53;2.42;;;20.00;94.60;;;18.80;49.87;100190.72;5000230;28;20144;-85
2022/11/15 11:06:16;;;;;;;5.53;2.60;;;20.40;93.80;;;19.63;49.51;100176.44;5001163;28;20045;-78
2022/11/15 11:08:54;;;;;;;4.35;2.92;;;21.30;93.40;;;18.86;48.21;100176.91;4993618;28;20030;-76
2022/11/15 11:11:19;;;;;;;4.67;2.30;;;21.50;90.30;;;17.57;52.35;100178.81;4999540;28;20029;-80
2022/11/15 11:13:45;;;;;;;4.78;2.58;;;20.40;92.30;;;15.92;59.51;100176.25;5000563;28;20284;-86
2022/11/15 11:16:13;;;;;;;4.47;2.33;;;18.60;96.60;;;14.99;63.90;100181.72;5008839;28;20034;-86
2022/11/15 11:19:17;;;;;;;4.68;2.78;;;17.40;99.80;;;14.53;66.16;100182.78;5016023;28;20041;-79
2022/11/15 11:22:31;;;;;;;6.90;3.00;;;16.50;99.90;;;15.00;65.05;100177.88;4999127;28;20084;-79
2022/11/15 11:25:20;;;;;;;5.68;3.25;;;16.50;99.90;;;15.18;65.12;100168.44;4997136;28;20030;-81
2022/11/15 11:27:59;;;;;;;4.50;2.47;;;16.70;99.90;;;15.38;63.69;100166.97;5002292;28;20092;-79
2022/11/15 11:31:07;;;;;;;5.15;2.67;;;17.00;99.90;;;16.38;61.18;100161.94;5014078;28;20042;-78
2022/11/15 11:34:01;;;;;;;4.38;2.40;;;17.60;99.90;;;17.26;58.37;100145.72;4992507;28;20113;-78
2022/11/15 11:36:57;;;;;;;5.40;2.67;;;18.90;99.60;;;17.52;55.09;100154.81;4993316;28;20065;-78
2022/11/15 11:39:41;;;;;;;5.13;2.38;;;19.40;96.70;;;17.16;55.56;100142.94;4998198;28;20052;-79
2022/11/15 11:42:57;;;;;;;4.75;2.67;;;19.50;96.30;;;16.95;57.30;100148.38;4994659;28;20070;-77
2022/11/15 11:45:56;;;;;;;5.93;2.72;;;19.20;97.00;;;16.57;58.28;100150.47;5002810;28;20050;-78